Time;durP1;ratioP1;P1;durP2;ratioP2;P2;SDS_P1;SDS_P2;PMS_P1;PMS_P2;Temp;Humidity;BMP_temperature;BMP_pressure;BME280_temperature;BME280_humidity;BME280_pressure;Samples;Min_cycle;Max_cycle;Signal;HPM_P1;HPM_P2
2022/04/10 00:02:24;;;;;;;10.93;1.83;;;22.30;76.60;;;;;;5053933;28;20183;-77
2022/04/10 00:04:51;;;;;;;11.30;1.80;;;22.20;77.70;;;;;;5051397;28;20187;-79
2022/04/10 00:07:18;;;;;;;7.43;1.57;;;22.30;77.60;;;;;;5052285;28;20681;-79
2022/04/10 00:09:46;;;;;;;5.47;1.90;;;22.30;77.60;;;;;;5047744;28;20183;-76
2022/04/10 00:12:13;;;;;;;6.93;1.43;;;22.30;77.10;;;;;;5038630;28;20215;-75
2022/04/10 00:14:40;;;;;;;5.87;1.50;;;22.30;77.00;;;;;;5051207;28;20187;-74
2022/04/10 00:17:08;;;;;;;6.53;1.50;;;22.30;76.80;;;;;;5052136;28;20199;-75
2022/04/10 00:19:35;;;;;;;8.97;1.57;;;22.50;76.60;;;;;;5060584;28;20175;-78
2022/04/10 00:22:02;;;;;;;5.57;1.43;;;22.50;76.80;;;;;;5059903;28;20188;-82
2022/04/10 00:24:30;;;;;;;6.37;1.73;;;22.50;76.50;;;;;;5065702;28;20183;-79
2022/04/10 00:26:57;;;;;;;10.27;1.50;;;22.50;76.20;;;;;;5064931;28;20278;-75
2022/04/10 00:29:24;;;;;;;6.43;1.73;;;22.50;76.20;;;;;;5061033;28;20180;-79
2022/04/10 00:31:52;;;;;;;7.17;1.60;;;22.40;76.80;;;;;;5064534;28;20240;-75
2022/04/10 00:34:20;;;;;;;9.63;1.60;;;22.30;77.10;;;;;;5051757;28;20184;-72
2022/04/10 00:36:47;;;;;;;6.83;1.70;;;22.20;77.70;;;;;;5051189;28;20176;-75
2022/04/10 00:39:15;;;;;;;8.40;1.93;;;22.20;77.90;;;;;;5052229;28;20226;-77
2022/04/10 00:41:42;;;;;;;7.83;1.63;;;22.10;77.90;;;;;;5050616;28;20741;-77
2022/04/10 00:44:11;;;;;;;8.70;1.87;;;22.10;77.90;;;;;;5046187;28;20179;-73
2022/04/10 00:46:39;;;;;;;13.30;2.00;;;22.00;78.60;;;;;;5052201;28;20267;-73
2022/04/10 00:49:07;;;;;;;7.77;1.73;;;21.80;79.30;;;;;;5052472;28;20242;-76
2022/04/10 00:51:43;;;;;;;5.77;1.73;;;21.80;80.70;;;;;;5051781;28;20251;-77
2022/04/10 00:54:19;;;;;;;8.90;1.60;;;21.80;81.20;;;;;;5051329;28;20209;-78
2022/04/10 00:56:47;;;;;;;9.73;1.70;;;21.80;82.20;;;;;;5054366;28;20175;-77
2022/04/10 00:59:15;;;;;;;6.57;1.80;;;21.70;81.70;;;;;;5055697;28;20183;-77
2022/04/10 01:01:44;;;;;;;9.67;1.70;;;21.80;82.70;;;;;;5057228;28;20187;-76
2022/04/10 01:04:18;;;;;;;8.13;1.60;;;21.70;81.80;;;;;;5065839;28;20180;-77
2022/04/10 01:06:48;;;;;;;9.07;2.30;;;21.90;82.10;;;;;;5055909;28;20676;-76
2022/04/10 01:09:16;;;;;;;10.37;1.87;;;21.90;82.50;;;;;;5055895;28;20666;-83
2022/04/10 01:11:44;;;;;;;5.90;2.03;;;21.90;83.10;;;;;;5054673;28;20176;-83
2022/04/10 01:14:14;;;;;;;16.20;11.10;;;22.00;82.90;;;;;;5055781;28;20184;-78
2022/04/10 01:16:42;;;;;;;8.53;2.70;;;22.20;81.90;;;;;;5055970;28;20317;-80
2022/04/10 01:19:11;;;;;;;12.20;4.27;;;22.20;81.60;;;;;;5054403;28;20186;-79
2022/04/10 01:21:44;;;;;;;11.73;3.70;;;22.50;81.10;;;;;;5050534;28;20176;-78
2022/04/10 01:24:12;;;;;;;10.27;2.07;;;22.80;80.50;;;;;;5054124;28;20188;-78
2022/04/10 01:26:40;;;;;;;7.37;1.80;;;22.80;78.70;;;;;;5053588;28;20169;-78
2022/04/10 01:29:14;;;;;;;4.57;1.37;;;22.80;77.30;;;;;;5055752;28;20274;-77
2022/04/10 01:31:44;;;;;;;8.57;2.00;;;23.30;76.30;;;;;;5044026;28;20173;-78
2022/04/10 01:34:14;;;;;;;6.60;2.53;;;23.70;74.80;;;;;;5061257;28;20182;-77
2022/04/10 01:36:43;;;;;;;8.57;2.97;;;24.00;76.20;;;;;;5055237;28;20967;-76
2022/04/10 01:39:12;;;;;;;7.90;2.10;;;24.30;73.70;;;;;;5054449;28;20212;-74
2022/04/10 01:41:39;;;;;;;5.13;1.40;;;23.90;72.50;;;;;;5055247;28;20226;-76
2022/04/10 01:44:08;;;;;;;5.97;2.10;;;23.60;72.50;;;;;;5051338;28;20192;-75
2022/04/10 01:46:37;;;;;;;7.50;2.20;;;23.30;73.40;;;;;;5050694;28;20235;-73
2022/04/10 01:49:06;;;;;;;8.23;2.20;;;23.30;74.80;;;;;;5051826;28;20274;-77
2022/04/10 01:51:34;;;;;;;5.53;1.70;;;23.10;74.10;;;;;;5050291;28;20172;-74
2022/04/10 01:54:01;;;;;;;10.40;2.20;;;23.20;74.40;;;;;;5055168;28;20176;-74
2022/04/10 01:56:29;;;;;;;7.17;2.10;;;23.30;73.10;;;;;;5055039;28;20538;-78
2022/04/10 01:58:56;;;;;;;11.20;4.50;;;23.30;73.40;;;;;;5053914;28;20182;-78
2022/04/10 02:01:24;;;;;;;8.03;2.20;;;23.50;73.50;;;;;;5055345;28;20230;-74
2022/04/10 02:03:51;;;;;;;5.57;1.70;;;23.50;72.20;;;;;;5058195;28;20180;-77
2022/04/10 02:06:21;;;;;;;7.93;2.00;;;23.70;73.50;;;;;;5054858;28;20189;-79
2022/04/10 02:08:48;;;;;;;11.17;2.70;;;23.80;72.80;;;;;;5054568;28;20278;-78
2022/04/10 02:11:20;;;;;;;8.10;2.00;;;24.00;72.10;;;;;;5054861;28;20183;-74
2022/04/10 02:13:49;;;;;;;5.53;1.63;;;23.90;71.80;;;;;;5054787;28;20188;-77
2022/04/10 02:16:18;;;;;;;6.83;1.50;;;23.70;72.00;;;;;;5055058;28;20180;-77
2022/04/10 02:18:48;;;;;;;9.00;1.80;;;23.60;73.00;;;;;;5054460;28;20168;-77
2022/04/10 02:21:16;;;;;;;5.80;2.37;;;23.40;73.10;;;;;;5044969;28;20183;-78
2022/04/10 02:23:44;;;;;;;9.20;2.47;;;23.60;71.90;;;;;;5054454;28;20180;-77
2022/04/10 02:26:12;;;;;;;5.03;1.70;;;23.80;72.40;;;;;;5054748;28;20228;-77
2022/04/10 02:28:40;;;;;;;9.33;2.30;;;23.90;69.80;;;;;;5054588;28;20219;-74
2022/04/10 02:31:08;;;;;;;8.47;2.00;;;24.90;68.30;;;;;;5054777;28;20187;-78
2022/04/10 02:33:37;;;;;;;11.93;2.13;;;25.10;66.10;;;;;;5066621;28;20630;-80
2022/04/10 02:36:05;;;;;;;5.90;1.50;;;24.90;67.40;;;;;;5054311;28;20171;-74
2022/04/10 02:38:32;;;;;;;6.10;1.57;;;25.10;66.90;;;;;;5054533;28;20259;-76
2022/04/10 02:41:00;;;;;;;8.40;1.67;;;24.90;67.50;;;;;;5054410;28;20207;-77
2022/04/10 02:43:27;;;;;;;10.37;1.60;;;25.20;68.20;;;;;;5054668;28;20266;-76
2022/04/10 02:45:54;;;;;;;8.83;1.83;;;25.30;66.30;;;;;;5053095;28;20230;-72
2022/04/10 02:48:22;;;;;;;7.87;1.87;;;25.40;66.90;;;;;;5054389;28;20210;-77
2022/04/10 02:50:49;;;;;;;8.97;2.30;;;26.20;63.90;;;;;;5054113;28;20175;-75
2022/04/10 02:53:16;;;;;;;17.17;5.37;;;25.80;64.40;;;;;;5054670;28;20325;-77
2022/04/10 02:55:43;;;;;;;10.10;3.50;;;25.30;65.60;;;;;;5054294;28;20183;-76
2022/04/10 02:58:11;;;;;;;9.30;3.03;;;25.60;65.60;;;;;;5050623;28;20542;-74
2022/04/10 03:00:38;;;;;;;5.97;1.80;;;26.10;64.30;;;;;;5048293;28;20635;-75
2022/04/10 03:03:06;;;;;;;8.37;1.70;;;26.00;65.20;;;;;;5062466;28;20191;-75
2022/04/10 03:05:33;;;;;;;11.43;2.23;;;26.30;63.60;;;;;;5054116;28;20172;-75
2022/04/10 03:08:00;;;;;;;5.63;1.43;;;26.60;62.30;;;;;;5053795;28;20212;-80
2022/04/10 03:10:28;;;;;;;9.20;1.73;;;25.90;63.10;;;;;;5053923;28;20207;-73
2022/04/10 03:12:55;;;;;;;6.57;1.60;;;26.30;62.90;;;;;;5054000;28;20273;-74
2022/04/10 03:15:22;;;;;;;7.60;1.80;;;26.50;62.20;;;;;;5053760;28;20637;-77
2022/04/10 03:17:50;;;;;;;8.57;1.80;;;26.90;60.70;;;;;;5053642;28;20223;-78
2022/04/10 03:20:19;;;;;;;8.53;1.93;;;26.80;59.30;;;;;;5086178;28;20174;-77
2022/04/10 03:22:46;;;;;;;6.40;1.73;;;26.80;60.60;;;;;;5053851;28;20180;-78
2022/04/10 03:25:13;;;;;;;7.20;1.87;;;26.90;58.80;;;;;;5053818;28;20223;-79
2022/04/10 03:27:41;;;;;;;5.30;1.40;;;26.90;59.80;;;;;;5053687;28;20199;-77
2022/04/10 03:30:09;;;;;;;4.93;1.70;;;27.50;57.20;;;;;;5054032;28;20223;-75
2022/04/10 03:32:36;;;;;;;3.93;1.10;;;27.10;57.90;;;;;;5045059;28;20213;-80
2022/04/10 03:35:03;;;;;;;4.87;1.20;;;26.90;58.30;;;;;;5053377;28;20178;-75
2022/04/10 03:37:31;;;;;;;8.07;1.70;;;26.90;58.70;;;;;;5053295;28;20207;-76
2022/04/10 03:39:58;;;;;;;9.13;1.50;;;26.20;60.50;;;;;;5053246;28;20254;-76
2022/04/10 03:42:25;;;;;;;7.67;1.73;;;25.90;61.20;;;;;;5053304;28;20553;-76
2022/04/10 03:44:53;;;;;;;7.83;1.60;;;25.60;62.70;;;;;;5053652;28;20186;-72
2022/04/10 03:47:20;;;;;;;3.90;1.43;;;25.20;63.90;;;;;;5043300;28;20231;-70
2022/04/10 03:49:47;;;;;;;7.73;1.23;;;24.80;63.90;;;;;;5051138;28;20184;-71
2022/04/10 03:52:15;;;;;;;8.73;1.40;;;24.70;65.30;;;;;;5053328;28;20654;-72
2022/04/10 03:54:42;;;;;;;7.70;1.60;;;24.40;65.00;;;;;;5053256;28;20191;-73
2022/04/10 03:57:09;;;;;;;7.47;1.67;;;24.50;65.40;;;;;;5053200;28;20579;-72
2022/04/10 03:59:36;;;;;;;7.00;1.57;;;24.50;66.80;;;;;;5053026;28;20175;-72
2022/04/10 04:02:04;;;;;;;8.73;1.50;;;24.60;65.70;;;;;;5057221;28;20168;-72
2022/04/10 04:04:31;;;;;;;11.13;1.93;;;24.30;66.50;;;;;;5061830;28;20701;-72
2022/04/10 04:06:59;;;;;;;7.10;1.80;;;24.50;66.80;;;;;;5052492;28;20661;-73
2022/04/10 04:09:26;;;;;;;7.80;1.80;;;24.30;67.00;;;;;;5052983;28;20642;-72
2022/04/10 04:11:53;;;;;;;4.73;1.67;;;24.30;67.50;;;;;;5052717;28;20288;-73
2022/04/10 04:14:21;;;;;;;8.50;2.07;;;24.30;67.80;;;;;;5052700;28;20176;-74
2022/04/10 04:16:49;;;;;;;12.10;2.17;;;24.40;68.10;;;;;;5052822;28;20533;-72
2022/04/10 04:19:16;;;;;;;7.30;2.03;;;24.30;67.80;;;;;;5052675;28;20176;-76
2022/04/10 04:21:44;;;;;;;4.70;1.83;;;24.30;68.00;;;;;;5052514;28;20168;-72
2022/04/10 04:24:11;;;;;;;10.63;2.07;;;24.30;68.00;;;;;;5052890;28;20202;-72
2022/04/10 04:26:38;;;;;;;8.37;1.80;;;24.40;68.30;;;;;;5052464;28;20522;-72
2022/04/10 04:29:05;;;;;;;8.10;1.90;;;24.50;68.50;;;;;;5052608;28;20187;-73
2022/04/10 04:31:33;;;;;;;9.83;2.13;;;24.40;67.50;;;;;;5052361;28;20179;-74
2022/04/10 04:34:00;;;;;;;7.70;1.80;;;25.50;65.80;;;;;;5062768;28;20542;-71
2022/04/10 04:36:27;;;;;;;8.63;2.13;;;26.60;61.90;;;;;;5052286;28;20208;-74
2022/04/10 04:38:57;;;;;;;8.83;1.77;;;27.20;60.30;;;;;;5052748;28;20682;-74
2022/04/10 04:41:24;;;;;;;11.43;2.17;;;27.30;59.20;;;;;;5052334;28;20223;-72
2022/04/10 04:43:51;;;;;;;8.57;2.10;;;27.80;57.30;;;;;;5052279;28;20172;-72
2022/04/10 04:46:19;;;;;;;9.97;2.10;;;28.10;56.20;;;;;;5050911;28;20183;-73
2022/04/10 04:48:46;;;;;;;9.03;1.93;;;27.50;57.10;;;;;;5049195;28;20290;-74
2022/04/10 04:51:17;;;;;;;6.63;1.53;;;27.20;58.60;;;;;;5051968;28;20634;-73
2022/04/10 04:53:44;;;;;;;8.50;1.67;;;26.80;59.80;;;;;;5052100;28;20658;-72
2022/04/10 04:56:11;;;;;;;10.17;2.30;;;27.10;58.40;;;;;;5052639;28;20249;-75
2022/04/10 04:58:39;;;;;;;6.97;1.53;;;26.90;58.60;;;;;;5052391;28;20305;-77
2022/04/10 05:01:06;;;;;;;9.83;1.93;;;26.50;59.40;;;;;;5052336;28;20665;-77
2022/04/10 05:03:34;;;;;;;6.20;1.37;;;27.00;58.90;;;;;;5058920;28;20259;-72
2022/04/10 05:06:01;;;;;;;9.17;2.07;;;27.60;57.00;;;;;;5051626;28;20180;-72
2022/04/10 05:08:29;;;;;;;10.60;1.63;;;27.60;55.60;;;;;;5051771;28;20291;-76
2022/04/10 05:10:56;;;;;;;9.47;1.80;;;27.70;55.90;;;;;;5052180;28;20210;-79
2022/04/10 05:13:23;;;;;;;10.63;1.57;;;27.60;56.50;;;;;;5052100;28;20203;-73
2022/04/10 05:15:51;;;;;;;7.00;1.77;;;27.30;56.70;;;;;;5051947;28;20176;-75
2022/04/10 05:18:19;;;;;;;7.13;1.67;;;26.90;58.30;;;;;;5052133;28;20184;-76
2022/04/10 05:20:47;;;;;;;5.03;1.23;;;27.50;56.30;;;;;;5051295;28;20168;-74
2022/04/10 05:23:19;;;;;;;8.90;1.70;;;27.90;55.40;;;;;;5052143;28;20188;-78
2022/04/10 05:25:48;;;;;;;6.97;1.47;;;28.00;54.40;;;;;;5051975;28;20210;-75
2022/04/10 05:28:16;;;;;;;6.88;1.40;;;27.90;54.30;;;;;;5052036;28;20690;-78
2022/04/10 05:30:44;;;;;;;8.53;1.63;;;28.00;54.60;;;;;;5051834;28;20227;-76
2022/04/10 05:33:11;;;;;;;8.53;1.17;;;27.70;54.00;;;;;;5053562;28;20252;-77
2022/04/10 05:35:39;;;;;;;5.90;1.40;;;27.60;55.10;;;;;;5046285;28;20661;-77
2022/04/10 05:38:07;;;;;;;7.73;1.43;;;27.20;55.90;;;;;;5051640;28;20654;-76
2022/04/10 05:40:34;;;;;;;11.47;1.80;;;27.70;54.80;;;;;;5051475;28;20236;-76
2022/04/10 05:43:01;;;;;;;6.30;1.40;;;28.10;53.60;;;;;;5054002;28;20188;-78
2022/04/10 05:45:29;;;;;;;3.65;1.25;;;27.90;54.80;;;;;;5055775;28;20175;-73
2022/04/10 05:47:56;;;;;;;8.32;1.80;;;28.30;53.10;;;;;;5053275;28;20223;-77
2022/04/10 05:50:24;;;;;;;8.13;1.55;;;28.00;54.30;;;;;;5044198;28;20600;-78
2022/04/10 05:52:51;;;;;;;5.28;1.45;;;28.20;53.70;;;;;;5055644;28;20242;-78
2022/04/10 05:55:19;;;;;;;10.53;1.57;;;28.90;52.30;;;;;;5055460;28;20258;-72
2022/04/10 05:57:47;;;;;;;8.07;1.60;;;28.10;53.50;;;;;;5055334;28;20182;-75
2022/04/10 06:00:16;;;;;;;5.22;1.27;;;27.80;53.80;;;;;;5055250;28;20653;-76
2022/04/10 06:02:44;;;;;;;5.45;1.30;;;28.30;53.50;;;;;;5064850;28;20248;-76
2022/04/10 06:05:11;;;;;;;4.93;1.23;;;28.30;53.00;;;;;;5057994;28;20635;-77
2022/04/10 06:07:39;;;;;;;9.47;1.87;;;27.60;55.10;;;;;;5054950;28;20203;-72
2022/04/10 06:10:07;;;;;;;5.43;1.77;;;28.10;53.50;;;;;;5054836;28;20544;-75
2022/04/10 06:12:34;;;;;;;8.10;1.67;;;28.10;53.40;;;;;;5055006;28;20172;-78
2022/04/10 06:15:01;;;;;;;5.88;1.48;;;28.60;51.70;;;;;;5055017;28;20230;-77
2022/04/10 06:17:30;;;;;;;5.90;1.73;;;27.90;53.80;;;;;;5055029;28;20176;-75
2022/04/10 06:19:58;;;;;;;5.75;1.40;;;28.00;54.50;;;;;;5054314;28;20176;-74
2022/04/10 06:22:26;;;;;;;4.73;1.43;;;28.10;54.00;;;;;;5040597;28;20267;-76
2022/04/10 06:24:54;;;;;;;8.48;1.88;;;27.90;55.10;;;;;;5040773;28;20217;-73
2022/04/10 06:27:22;;;;;;;8.80;1.73;;;28.20;54.80;;;;;;5054430;28;20553;-75
2022/04/10 06:29:49;;;;;;;5.20;1.40;;;28.60;54.40;;;;;;5054118;28;20661;-74
2022/04/10 06:32:16;;;;;;;6.82;1.88;;;29.20;52.30;;;;;;5057062;28;20546;-77
2022/04/10 06:34:44;;;;;;;6.70;1.58;;;28.40;54.30;;;;;;5053546;28;20188;-77
2022/04/10 06:37:14;;;;;;;7.40;1.67;;;27.30;56.50;;;;;;5053460;28;20180;-77
2022/04/10 06:39:42;;;;;;;6.23;1.50;;;27.30;56.90;;;;;;5051246;28;20208;-73
2022/04/10 06:42:10;;;;;;;8.70;1.67;;;27.70;55.60;;;;;;5033275;28;20627;-76
2022/04/10 06:44:38;;;;;;;6.07;1.70;;;27.50;55.40;;;;;;5034568;28;20185;-74
2022/04/10 06:47:05;;;;;;;5.73;1.50;;;27.10;56.40;;;;;;5050559;28;20250;-76
2022/04/10 06:49:33;;;;;;;7.97;1.80;;;27.70;55.00;;;;;;5048791;28;20191;-74
2022/04/10 06:52:00;;;;;;;5.10;1.30;;;27.10;56.60;;;;;;5053942;28;20172;-74
2022/04/10 06:54:28;;;;;;;9.67;1.83;;;26.90;58.10;;;;;;5054397;28;20186;-72
2022/04/10 06:56:55;;;;;;;5.97;1.70;;;25.90;60.60;;;;;;5046950;28;20511;-76
2022/04/10 06:59:22;;;;;;;9.63;1.33;;;25.50;61.80;;;;;;5033909;28;20176;-76
2022/04/10 07:01:50;;;;;;;11.13;2.23;;;24.80;64.10;;;;;;5052937;28;20310;-75
2022/04/10 07:04:17;;;;;;;7.80;1.87;;;24.60;65.50;;;;;;5066208;28;20594;-79
2022/04/10 07:06:46;;;;;;;7.57;2.03;;;24.30;67.30;;;;;;5044810;28;20175;-77
2022/04/10 07:09:18;;;;;;;6.33;1.80;;;24.10;68.10;;;;;;5053574;28;20262;-74
2022/04/10 07:11:45;;;;;;;5.10;1.63;;;24.00;67.70;;;;;;5045611;28;20175;-73
2022/04/10 07:14:13;;;;;;;6.70;1.40;;;23.70;68.30;;;;;;5053612;28;20192;-72
2022/04/10 07:16:40;;;;;;;11.07;1.73;;;23.70;68.70;;;;;;5054053;28;20234;-75
2022/04/10 07:19:08;;;;;;;10.60;2.27;;;23.60;69.50;;;;;;5053668;28;20206;-73
2022/04/10 07:24:21;;;;;;;10.73;2.03;;;23.40;71.00;;;;;;5038474;28;20191;-78
2022/04/10 07:26:52;;;;;;;7.07;2.17;;;23.20;71.30;;;;;;5052732;28;20195;-76
2022/04/10 07:29:19;;;;;;;9.50;2.27;;;23.10;71.50;;;;;;5053637;28;20270;-73
2022/04/10 07:31:47;;;;;;;8.60;2.40;;;23.00;72.60;;;;;;5055700;28;20279;-78
2022/04/10 07:34:14;;;;;;;18.80;3.17;;;22.90;73.30;;;;;;5062933;28;20262;-74
2022/04/10 07:36:41;;;;;;;8.90;2.23;;;22.80;73.40;;;;;;5052345;28;20184;-78
2022/04/10 07:39:09;;;;;;;17.40;2.43;;;22.70;74.20;;;;;;5053612;28;20280;-72
2022/04/10 07:41:36;;;;;;;7.60;1.73;;;22.60;74.70;;;;;;5053112;28;20280;-75
2022/04/10 07:44:03;;;;;;;7.87;1.93;;;22.50;75.00;;;;;;5052882;28;20241;-73
2022/04/10 07:49:18;;;;;;;9.53;4.67;;;22.30;75.60;;;;;;5052450;28;20316;-76
2022/04/10 07:51:45;;;;;;;13.43;3.93;;;22.30;76.30;;;;;;5052561;28;20172;-76
2022/04/10 07:54:12;;;;;;;17.87;9.07;;;22.30;76.60;;;;;;5052242;28;20662;-73
2022/04/10 07:56:41;;;;;;;13.23;5.13;;;22.30;76.70;;;;;;5053378;28;20222;-75
2022/04/10 07:59:08;;;;;;;8.43;2.10;;;22.30;76.80;;;;;;5051952;28;20194;-77
2022/04/10 08:01:35;;;;;;;8.77;2.00;;;22.10;77.70;;;;;;5053349;28;20180;-79
2022/04/10 08:04:03;;;;;;;18.87;12.60;;;21.90;78.20;;;;;;5045557;28;20196;-76
2022/04/10 08:06:30;;;;;;;13.70;7.30;;;22.00;78.50;;;;;;5041548;28;20261;-75
2022/04/10 08:08:57;;;;;;;12.50;3.60;;;21.90;78.70;;;;;;5052813;28;20230;-74
2022/04/10 08:11:24;;;;;;;9.07;1.90;;;21.80;79.00;;;;;;5050495;28;20172;-76
2022/04/10 08:13:52;;;;;;;11.47;2.17;;;21.80;78.60;;;;;;5050903;28;20172;-75
2022/04/10 08:16:20;;;;;;;8.37;2.67;;;21.80;78.80;;;;;;5033148;28;20708;-74
2022/04/10 08:18:47;;;;;;;12.07;2.53;;;21.80;79.00;;;;;;5033438;28;20192;-73
2022/04/10 08:21:15;;;;;;;13.40;2.40;;;21.80;78.90;;;;;;5046518;28;20187;-76
2022/04/10 08:23:42;;;;;;;9.50;4.93;;;21.70;79.40;;;;;;5050389;28;20176;-75
2022/04/10 08:26:10;;;;;;;12.57;4.43;;;21.60;79.60;;;;;;5052881;28;20167;-75
2022/04/10 08:28:37;;;;;;;10.07;3.60;;;21.50;79.60;;;;;;5052541;28;20311;-75
2022/04/10 08:31:05;;;;;;;14.13;3.37;;;21.50;79.80;;;;;;5052666;28;20515;-76
2022/04/10 08:33:32;;;;;;;8.87;2.90;;;21.50;79.90;;;;;;5068677;28;20210;-73
2022/04/10 08:35:59;;;;;;;12.77;4.20;;;21.50;80.00;;;;;;5051945;28;20707;-74
2022/04/10 08:38:27;;;;;;;12.27;3.43;;;21.40;80.10;;;;;;5052288;28;20181;-77
2022/04/10 08:41:02;;;;;;;7.43;3.07;;;21.40;80.30;;;;;;5052447;28;20243;-73
2022/04/10 08:43:30;;;;;;;13.90;2.73;;;21.40;80.50;;;;;;5033099;28;20274;-72
2022/04/10 08:45:58;;;;;;;9.90;2.57;;;21.30;80.50;;;;;;5051790;28;20560;-72
2022/04/10 08:48:26;;;;;;;25.23;12.40;;;21.30;81.00;;;;;;5049687;28;20220;-72
2022/04/10 08:51:01;;;;;;;11.73;6.47;;;21.30;81.40;;;;;;5051959;28;20176;-72
2022/04/10 08:53:29;;;;;;;16.90;6.43;;;21.30;81.60;;;;;;5050351;28;20197;-73
2022/04/10 08:55:56;;;;;;;7.43;3.50;;;21.30;81.80;;;;;;5051857;28;20283;-72
2022/04/10 08:58:24;;;;;;;11.27;3.40;;;21.30;82.10;;;;;;5048829;28;20699;-72
2022/04/10 09:00:51;;;;;;;8.17;2.80;;;21.20;82.20;;;;;;5042461;28;20247;-72
2022/04/10 09:03:19;;;;;;;12.50;3.13;;;21.20;82.30;;;;;;5055519;28;20184;-73
2022/04/10 09:06:02;;;;;;;12.53;3.10;;;21.20;82.70;;;;;;5051374;28;20560;-72
2022/04/10 09:08:29;;;;;;;8.80;3.13;;;21.10;82.70;;;;;;5051856;28;20294;-72
2022/04/10 09:11:00;;;;;;;15.10;3.50;;;21.10;83.00;;;;;;5050412;28;20216;-72
2022/04/10 09:13:38;;;;;;;10.57;3.33;;;21.00;83.20;;;;;;5049683;28;20190;-72
2022/04/10 09:16:14;;;;;;;9.63;3.40;;;21.00;83.30;;;;;;5052482;28;20180;-72
2022/04/10 09:19:06;;;;;;;16.13;4.00;;;21.00;83.60;;;;;;5045844;28;20182;-73
2022/04/10 09:21:36;;;;;;;14.23;4.80;;;20.90;83.90;;;;;;5054777;28;20179;-74
2022/04/10 09:24:06;;;;;;;11.23;4.70;;;20.80;84.20;;;;;;5056219;28;20191;-73
2022/04/10 09:26:57;;;;;;;11.13;3.23;;;20.80;84.20;;;;;;5055208;28;20168;-74
2022/04/10 09:29:26;;;;;;;17.13;3.67;;;20.80;84.50;;;;;;5036712;28;20663;-78
2022/04/10 09:31:54;;;;;;;11.13;3.23;;;20.80;84.30;;;;;;5054138;28;20168;-77
2022/04/10 09:34:25;;;;;;;11.37;3.57;;;20.80;84.40;;;;;;5052380;28;20172;-74
2022/04/10 09:37:04;;;;;;;8.83;2.90;;;20.70;84.80;;;;;;5054869;28;20704;-73
2022/04/10 09:39:34;;;;;;;8.83;3.10;;;20.70;84.80;;;;;;5055065;28;20271;-72
2022/04/10 09:42:10;;;;;;;11.00;2.77;;;20.50;84.70;;;;;;5055329;28;20234;-76
2022/04/10 09:44:39;;;;;;;6.90;2.80;;;20.50;85.00;;;;;;5054965;28;20233;-73
2022/04/10 09:47:10;;;;;;;11.93;3.00;;;20.50;85.10;;;;;;5055124;28;20650;-74
2022/04/10 09:49:39;;;;;;;7.73;2.50;;;20.50;85.10;;;;;;5055465;28;20245;-74
2022/04/10 09:52:11;;;;;;;8.17;3.23;;;20.40;85.40;;;;;;5054580;28;20657;-78
2022/04/10 09:54:42;;;;;;;10.63;3.17;;;20.40;85.80;;;;;;5055212;28;20204;-77
2022/04/10 09:57:13;;;;;;;17.27;3.67;;;20.40;86.00;;;;;;5055250;28;20212;-74
2022/04/10 09:59:48;;;;;;;10.03;3.10;;;20.30;86.00;;;;;;5054993;28;20180;-74
2022/04/10 10:02:17;;;;;;;10.27;3.70;;;20.30;86.20;;;;;;5056834;28;20175;-77
2022/04/10 10:04:46;;;;;;;8.83;3.50;;;20.30;86.40;;;;;;5055537;28;20255;-74
2022/04/10 10:07:22;;;;;;;13.50;4.53;;;20.30;86.60;;;;;;5054339;28;20291;-75
2022/04/10 10:09:50;;;;;;;14.43;5.50;;;20.30;86.70;;;;;;5054488;28;20663;-74
2022/04/10 10:12:18;;;;;;;12.80;4.73;;;20.20;86.60;;;;;;5054626;28;20175;-77
2022/04/10 10:14:46;;;;;;;15.63;4.73;;;20.20;86.80;;;;;;5052875;28;20184;-79
2022/04/10 10:17:13;;;;;;;14.20;4.63;;;20.10;86.90;;;;;;5054193;28;20222;-74
2022/04/10 10:19:41;;;;;;;19.30;5.63;;;20.10;87.10;;;;;;5054490;28;20183;-73
2022/04/10 10:22:12;;;;;;;16.83;7.73;;;20.10;87.30;;;;;;5053809;28;20605;-75
2022/04/10 10:25:07;;;;;;;20.20;6.70;;;20.20;87.70;;;;;;5054481;28;20183;-77
2022/04/10 10:27:34;;;;;;;18.33;6.90;;;20.20;88.00;;;;;;5053809;28;20231;-80
2022/04/10 10:30:18;;;;;;;16.50;5.67;;;20.10;88.00;;;;;;5053836;28;20189;-78
2022/04/10 10:32:55;;;;;;;16.47;4.80;;;20.00;87.80;;;;;;5062364;28;20182;-75
2022/04/10 10:35:42;;;;;;;17.63;5.33;;;20.00;87.80;;;;;;5054522;28;20555;-77
2022/04/10 10:38:33;;;;;;;18.37;6.00;;;20.00;88.20;;;;;;5054085;28;20176;-74
2022/04/10 10:41:19;;;;;;;13.37;4.90;;;20.00;88.50;;;;;;5049820;28;20306;-75
2022/04/10 10:43:47;;;;;;;14.60;4.13;;;20.00;88.40;;;;;;5052983;28;20195;-74
2022/04/10 10:46:22;;;;;;;13.30;3.57;;;20.00;88.50;;;;;;5054002;28;20194;-74
2022/04/10 10:48:53;;;;;;;15.07;3.50;;;20.00;88.30;;;;;;5053498;28;21625;-76
2022/04/10 10:51:40;;;;;;;6.63;2.30;;;19.90;88.30;;;;;;5052082;28;20268;-73
2022/04/10 10:54:11;;;;;;;15.67;3.50;;;19.80;88.50;;;;;;5053319;28;20191;-78
2022/04/10 10:56:40;;;;;;;9.57;3.47;;;19.80;88.80;;;;;;5053998;28;20222;-75
2022/04/10 10:59:30;;;;;;;10.80;3.60;;;19.80;89.00;;;;;;5045134;28;20191;-76
2022/04/10 11:02:06;;;;;;;11.13;3.40;;;19.80;89.10;;;;;;5056943;28;20253;-74
2022/04/10 11:04:40;;;;;;;13.07;3.60;;;19.90;89.10;;;;;;5057941;28;20176;-72
2022/04/10 11:07:15;;;;;;;16.13;3.40;;;19.80;89.30;;;;;;5052615;28;20188;-79
2022/04/10 11:10:15;;;;;;;15.07;2.70;;;19.80;89.20;;;;;;5052387;28;20191;-79
2022/04/10 11:13:09;;;;;;;12.40;3.30;;;19.80;89.40;;;;;;5053602;28;20176;-74
2022/04/10 11:15:51;;;;;;;14.00;2.90;;;19.70;89.50;;;;;;5053542;28;20188;-77
2022/04/10 11:18:25;;;;;;;10.00;2.60;;;19.70;89.30;;;;;;5039735;28;20199;-75
2022/04/10 11:21:05;;;;;;;7.27;2.87;;;19.70;89.40;;;;;;5047936;28;20179;-74
2022/04/10 11:23:39;;;;;;;13.37;3.13;;;19.70;89.80;;;;;;5045160;28;20188;-74
2022/04/10 11:26:12;;;;;;;14.87;2.87;;;19.60;89.80;;;;;;5047479;28;20258;-74
2022/04/10 11:29:04;;;;;;;11.37;2.70;;;19.60;89.80;;;;;;5054747;28;20223;-73
2022/04/10 11:31:32;;;;;;;16.27;3.53;;;19.60;89.90;;;;;;5053378;28;20179;-76
2022/04/10 11:34:29;;;;;;;10.20;3.40;;;19.60;90.10;;;;;;5046537;28;20755;-76
2022/04/10 11:37:00;;;;;;;13.80;3.77;;;19.50;90.10;;;;;;5045991;28;20177;-79
2022/04/10 11:39:29;;;;;;;9.40;2.80;;;19.50;90.10;;;;;;5047632;28;20180;-77
2022/04/10 11:42:05;;;;;;;15.47;3.57;;;19.50;90.40;;;;;;5041575;28;20298;-73
2022/04/10 11:44:32;;;;;;;9.77;3.27;;;19.40;90.20;;;;;;5053310;28;20305;-75
2022/04/10 11:47:11;;;;;;;12.40;3.03;;;19.30;90.40;;;;;;5053434;28;20650;-77
2022/04/10 11:49:39;;;;;;;11.47;3.17;;;19.40;90.50;;;;;;5052836;28;20690;-72
2022/04/10 11:52:07;;;;;;;11.00;2.77;;;19.30;90.50;;;;;;5053890;28;20258;-74
2022/04/10 11:54:37;;;;;;;11.23;3.20;;;19.40;90.60;;;;;;5052360;28;20195;-79
2022/04/10 11:57:06;;;;;;;12.03;3.23;;;19.30;90.60;;;;;;5053020;28;20172;-73
2022/04/10 11:59:35;;;;;;;14.50;3.37;;;19.40;90.70;;;;;;5045824;28;20185;-75
2022/04/10 12:02:04;;;;;;;17.90;2.90;;;19.30;90.60;;;;;;5056393;28;20291;-74
2022/04/10 12:04:35;;;;;;;17.83;3.40;;;19.30;90.80;;;;;;5053093;28;20215;-74
2022/04/10 12:07:17;;;;;;;10.47;2.77;;;19.30;90.80;;;;;;5052056;28;20184;-76
2022/04/10 12:09:49;;;;;;;16.23;3.47;;;19.30;90.70;;;;;;5052308;28;20646;-77
2022/04/10 12:12:36;;;;;;;12.27;2.90;;;19.20;91.00;;;;;;5051396;28;20643;-79
2022/04/10 12:15:18;;;;;;;12.10;3.00;;;19.20;91.10;;;;;;5051194;28;20644;-76
2022/04/10 12:18:02;;;;;;;10.73;3.10;;;19.20;91.20;;;;;;5044376;28;20267;-73
2022/04/10 12:20:29;;;;;;;10.97;3.20;;;19.30;91.20;;;;;;5049259;28;20192;-73
2022/04/10 12:22:57;;;;;;;12.10;3.40;;;19.20;91.20;;;;;;5047680;28;20263;-79
2022/04/10 12:25:24;;;;;;;11.57;3.40;;;19.20;91.00;;;;;;5052943;28;20176;-76
2022/04/10 12:27:52;;;;;;;14.00;4.03;;;19.10;91.20;;;;;;5050577;28;20580;-79
2022/04/10 12:30:21;;;;;;;13.17;3.63;;;19.10;91.20;;;;;;5051274;28;20204;-72
2022/04/10 12:32:49;;;;;;;11.43;3.10;;;19.00;91.20;;;;;;5056361;28;20206;-78
2022/04/10 12:35:16;;;;;;;10.27;3.80;;;19.00;91.20;;;;;;5052829;28;20179;-78
2022/04/10 12:37:59;;;;;;;9.70;3.20;;;18.90;91.30;;;;;;5052460;28;20245;-74
2022/04/10 12:40:30;;;;;;;9.57;3.33;;;18.90;91.30;;;;;;5050922;28;20563;-77
2022/04/10 12:43:02;;;;;;;13.93;3.90;;;18.80;91.30;;;;;;5032702;28;20173;-77
2022/04/10 12:45:34;;;;;;;11.77;3.57;;;18.90;91.40;;;;;;5035738;28;20334;-74
2022/04/10 12:48:18;;;;;;;12.93;3.63;;;18.90;91.70;;;;;;5052377;28;20245;-77
2022/04/10 12:50:46;;;;;;;14.97;3.53;;;18.90;91.70;;;;;;5051117;28;20180;-73
2022/04/10 12:53:13;;;;;;;9.20;3.37;;;18.90;91.80;;;;;;5051372;28;20192;-77
2022/04/10 12:55:41;;;;;;;12.13;3.87;;;18.90;91.90;;;;;;5052472;28;20271;-77
2022/04/10 12:58:08;;;;;;;15.20;3.50;;;18.90;92.00;;;;;;5048640;28;20593;-79
2022/04/10 13:00:46;;;;;;;15.70;3.90;;;18.90;92.00;;;;;;5049844;28;20184;-79
2022/04/10 13:03:23;;;;;;;14.40;3.37;;;18.90;92.00;;;;;;5066570;28;20182;-78